Time;durP1;ratioP1;P1;durP2;ratioP2;P2;SDS_P1;SDS_P2;PMS_P1;PMS_P2;Temp;Humidity;BMP_temperature;BMP_pressure;BME280_temperature;BME280_humidity;BME280_pressure;Samples;Min_cycle;Max_cycle;Signal;HPM_P1;HPM_P2
2023/05/06 00:02:04;;;;;;;8.53;6.50;;;14.00;99.90;;;;;;5074124;28;20226;-69
2023/05/06 00:04:31;;;;;;;10.50;6.57;;;13.90;99.90;;;;;;5074255;28;20234;-70
2023/05/06 00:06:56;;;;;;;10.33;6.63;;;13.90;99.90;;;;;;5072822;28;20173;-69
2023/05/06 00:09:23;;;;;;;11.63;7.10;;;13.90;99.90;;;;;;5074280;28;20655;-69
2023/05/06 00:11:49;;;;;;;12.70;8.57;;;13.80;99.90;;;;;;5074015;28;20294;-69
2023/05/06 00:14:15;;;;;;;17.10;9.43;;;13.80;99.90;;;;;;5073670;28;20176;-68
2023/05/06 00:16:40;;;;;;;18.87;9.97;;;13.80;99.90;;;;;;5073964;28;20671;-68
2023/05/06 00:19:06;;;;;;;13.97;8.77;;;13.80;99.90;;;;;;5073547;28;20224;-69
2023/05/06 00:21:32;;;;;;;15.60;8.60;;;13.70;99.90;;;;;;5073982;28;20161;-69
2023/05/06 00:23:57;;;;;;;17.63;8.80;;;13.80;99.90;;;;;;5073838;28;20221;-68
2023/05/06 00:26:23;;;;;;;17.53;8.93;;;13.70;99.90;;;;;;5073677;28;20355;-68
2023/05/06 00:28:49;;;;;;;13.53;8.23;;;13.80;99.90;;;;;;5073340;28;20291;-69
2023/05/06 00:31:14;;;;;;;14.50;8.07;;;13.70;99.90;;;;;;5073611;28;20555;-69
2023/05/06 00:33:40;;;;;;;15.10;7.67;;;13.70;99.90;;;;;;5073675;28;20161;-68
2023/05/06 00:36:06;;;;;;;13.93;7.90;;;13.70;99.90;;;;;;5073687;28;20251;-68
2023/05/06 00:38:31;;;;;;;13.97;7.60;;;13.60;99.90;;;;;;5055588;28;20218;-68
2023/05/06 00:40:57;;;;;;;12.27;6.97;;;13.60;99.90;;;;;;5073544;28;20169;-69
2023/05/06 00:43:23;;;;;;;13.37;7.63;;;13.60;99.90;;;;;;5073142;28;20192;-69
2023/05/06 00:45:49;;;;;;;11.97;7.60;;;13.60;99.90;;;;;;5073572;28;20161;-69
2023/05/06 00:48:16;;;;;;;10.70;7.07;;;13.60;99.90;;;;;;5073322;28;20179;-69
2023/05/06 00:50:43;;;;;;;13.23;7.17;;;13.60;99.90;;;;;;5073239;28;20719;-68
2023/05/06 00:53:09;;;;;;;9.70;6.50;;;13.60;99.90;;;;;;5073297;28;20255;-69
2023/05/06 00:55:36;;;;;;;9.63;6.33;;;13.60;99.90;;;;;;5073077;28;20177;-68
2023/05/06 00:58:03;;;;;;;9.97;6.23;;;13.50;99.90;;;;;;5072997;28;20177;-69
2023/05/06 01:00:28;;;;;;;9.97;6.47;;;13.50;99.90;;;;;;5073224;28;20165;-69
2023/05/06 01:02:54;;;;;;;9.73;6.53;;;13.40;99.90;;;;;;5073243;28;20258;-69
2023/05/06 01:05:22;;;;;;;12.30;7.10;;;13.50;99.90;;;;;;5073096;28;20227;-69
2023/05/06 01:07:59;;;;;;;10.97;6.87;;;13.40;99.90;;;;;;5055000;28;20624;-69
2023/05/06 01:10:34;;;;;;;13.03;7.77;;;13.40;99.90;;;;;;5055059;28;20219;-69
2023/05/06 01:13:35;;;;;;;14.93;7.77;;;13.40;99.90;;;;;;5072827;28;20160;-69
2023/05/06 01:16:03;;;;;;;12.40;7.70;;;13.40;99.90;;;;;;5072887;28;20169;-69
2023/05/06 01:18:31;;;;;;;13.57;8.00;;;13.40;99.90;;;;;;5054384;28;20205;-69
2023/05/06 01:20:58;;;;;;;12.77;7.33;;;13.40;99.90;;;;;;5072996;28;20165;-69
2023/05/06 01:23:24;;;;;;;13.30;7.43;;;13.30;99.90;;;;;;5073037;28;20172;-69
2023/05/06 01:25:49;;;;;;;10.50;6.10;;;13.40;99.90;;;;;;5072578;28;20176;-69
2023/05/06 01:28:16;;;;;;;7.33;4.90;;;13.30;99.90;;;;;;5072894;28;20161;-69
2023/05/06 01:30:50;;;;;;;7.07;4.67;;;13.30;99.90;;;;;;5054877;28;20208;-69
2023/05/06 01:33:39;;;;;;;5.77;4.50;;;13.30;99.90;;;;;;5072771;28;20578;-69
2023/05/06 01:36:16;;;;;;;6.47;4.43;;;13.20;99.90;;;;;;5054905;28;20329;-69
2023/05/06 01:39:20;;;;;;;8.40;4.80;;;13.20;99.90;;;;;;5072514;28;20179;-68
2023/05/06 01:41:52;;;;;;;6.10;4.40;;;13.20;99.90;;;;;;4955422;28;20167;-68
2023/05/06 01:44:20;;;;;;;6.53;4.67;;;13.20;99.90;;;;;;5038480;28;20269;-69
2023/05/06 01:46:48;;;;;;;4.40;3.70;;;13.20;99.90;;;;;;5072633;28;20176;-68
2023/05/06 01:49:15;;;;;;;4.90;4.03;;;13.20;99.90;;;;;;5072732;28;20250;-68
2023/05/06 01:51:47;;;;;;;6.40;4.13;;;13.20;99.90;;;;;;5054568;28;20269;-68
2023/05/06 01:54:13;;;;;;;5.60;4.13;;;13.30;99.90;;;;;;5054682;28;20526;-69
2023/05/06 01:56:39;;;;;;;6.57;3.97;;;13.20;99.90;;;;;;5072499;28;20196;-69
2023/05/06 01:59:04;;;;;;;4.57;3.90;;;13.30;99.90;;;;;;5072639;28;20192;-69
2023/05/06 02:01:30;;;;;;;5.03;4.20;;;13.20;99.90;;;;;;5072549;28;20169;-69
2023/05/06 02:03:55;;;;;;;4.30;3.77;;;13.30;99.90;;;;;;5072548;28;20251;-69
2023/05/06 02:06:21;;;;;;;5.27;3.80;;;13.30;99.90;;;;;;5054563;28;20553;-69
2023/05/06 02:08:47;;;;;;;4.97;3.73;;;13.20;99.90;;;;;;5072529;28;20190;-69
2023/05/06 02:11:13;;;;;;;4.70;3.60;;;13.20;99.90;;;;;;5072109;28;20208;-69
2023/05/06 02:13:38;;;;;;;4.20;3.80;;;13.20;99.90;;;;;;5072559;28;20222;-70
2023/05/06 02:16:04;;;;;;;4.80;3.83;;;13.20;99.90;;;;;;5054545;28;20651;-69
2023/05/06 02:18:30;;;;;;;4.97;3.80;;;13.20;99.90;;;;;;5072198;28;20221;-69
2023/05/06 02:20:56;;;;;;;4.90;3.53;;;13.20;99.90;;;;;;5072493;28;20226;-69
2023/05/06 02:23:21;;;;;;;3.90;3.50;;;13.20;99.90;;;;;;5072171;28;20565;-69
2023/05/06 02:25:47;;;;;;;4.20;3.80;;;13.20;99.90;;;;;;5072424;28;20496;-69
2023/05/06 02:28:13;;;;;;;5.43;3.40;;;13.20;99.90;;;;;;5072390;28;20516;-69
2023/05/06 02:30:38;;;;;;;4.13;3.80;;;13.20;99.90;;;;;;5074628;28;20563;-69
2023/05/06 02:33:04;;;;;;;4.53;4.00;;;13.20;99.90;;;;;;5057913;28;20180;-69
2023/05/06 02:35:30;;;;;;;4.97;3.60;;;13.20;99.90;;;;;;5075959;28;20200;-68
2023/05/06 02:37:55;;;;;;;4.83;4.07;;;13.20;99.90;;;;;;5057418;28;20173;-68
2023/05/06 02:40:21;;;;;;;5.67;4.27;;;13.20;99.90;;;;;;5075687;28;20558;-68
2023/05/06 02:42:46;;;;;;;5.73;4.30;;;13.20;99.90;;;;;;5075657;28;20518;-68
2023/05/06 02:45:12;;;;;;;5.83;4.57;;;13.20;99.90;;;;;;5075497;28;20173;-69
2023/05/06 02:47:38;;;;;;;5.23;4.47;;;13.20;99.90;;;;;;5075668;28;20172;-69
2023/05/06 02:50:03;;;;;;;7.67;4.93;;;13.10;99.90;;;;;;5075493;28;20184;-69
2023/05/06 02:52:29;;;;;;;7.93;4.80;;;13.00;99.90;;;;;;5075129;28;20168;-69
2023/05/06 02:54:55;;;;;;;7.30;5.23;;;12.90;99.90;;;;;;5075487;28;20160;-69
2023/05/06 02:57:20;;;;;;;10.13;5.90;;;12.90;99.90;;;;;;5057363;28;20657;-69
2023/05/06 02:59:46;;;;;;;9.90;5.83;;;12.90;99.90;;;;;;5075384;28;20327;-69
2023/05/06 03:02:11;;;;;;;10.97;6.67;;;12.90;99.90;;;;;;5057310;28;20538;-69
2023/05/06 03:04:37;;;;;;;9.27;6.67;;;12.90;99.90;;;;;;5075285;28;20168;-69
2023/05/06 03:07:03;;;;;;;15.37;8.60;;;13.00;99.90;;;;;;5074740;28;20601;-68
2023/05/06 03:09:28;;;;;;;14.07;7.73;;;13.00;99.90;;;;;;5075278;28;20213;-69
2023/05/06 03:11:55;;;;;;;15.20;8.13;;;13.00;99.90;;;;;;5075023;28;20208;-69
2023/05/06 03:14:21;;;;;;;19.37;8.80;;;13.00;99.90;;;;;;5056953;28;20199;-69
2023/05/06 03:16:46;;;;;;;15.37;8.47;;;13.00;99.90;;;;;;5075122;28;20503;-69
2023/05/06 03:19:12;;;;;;;15.70;8.90;;;12.90;99.90;;;;;;5074639;28;20445;-69
2023/05/06 03:21:38;;;;;;;17.03;8.87;;;12.90;99.90;;;;;;5074568;28;20525;-69
2023/05/06 03:24:04;;;;;;;15.60;8.90;;;13.00;99.90;;;;;;5074962;28;20172;-68
2023/05/06 03:26:29;;;;;;;14.20;8.23;;;13.00;99.90;;;;;;5074989;28;20187;-68
2023/05/06 03:28:55;;;;;;;15.40;8.00;;;13.00;99.90;;;;;;5074819;28;20195;-69
2023/05/06 03:31:20;;;;;;;16.30;8.37;;;13.00;99.90;;;;;;5074624;28;20710;-69
2023/05/06 03:33:46;;;;;;;12.43;7.27;;;12.90;99.90;;;;;;5074866;28;20249;-70
2023/05/06 03:36:12;;;;;;;13.33;7.50;;;12.90;99.90;;;;;;5074395;28;20546;-69
2023/05/06 03:38:39;;;;;;;10.77;6.90;;;12.90;99.90;;;;;;5074667;28;20173;-69
2023/05/06 03:41:05;;;;;;;13.10;6.97;;;12.90;99.90;;;;;;5074349;28;20177;-69
2023/05/06 03:43:31;;;;;;;13.50;7.97;;;12.90;99.90;;;;;;5074222;28;20176;-69
2023/05/06 03:45:57;;;;;;;13.33;7.00;;;12.80;99.90;;;;;;5074805;28;20185;-69
2023/05/06 03:48:23;;;;;;;11.80;6.70;;;12.70;99.90;;;;;;5074464;28;20168;-70
2023/05/06 03:50:48;;;;;;;11.73;6.80;;;12.70;99.90;;;;;;5056270;28;20216;-69
2023/05/06 03:53:14;;;;;;;12.27;6.50;;;12.70;99.90;;;;;;5074539;28;20169;-69
2023/05/06 03:55:40;;;;;;;13.30;6.67;;;12.70;99.90;;;;;;5074234;28;20161;-69
2023/05/06 03:58:06;;;;;;;12.67;6.20;;;12.70;99.90;;;;;;5074148;28;20195;-69
2023/05/06 04:00:32;;;;;;;9.83;5.77;;;12.70;99.90;;;;;;5074386;28;20621;-69
2023/05/06 04:02:57;;;;;;;12.50;6.40;;;12.60;99.90;;;;;;5073925;28;20172;-69
2023/05/06 04:05:23;;;;;;;10.03;6.17;;;12.60;99.90;;;;;;5073738;28;20173;-68
2023/05/06 04:07:49;;;;;;;9.47;6.03;;;12.60;99.90;;;;;;5073981;28;20173;-69
2023/05/06 04:10:14;;;;;;;8.43;5.73;;;12.60;99.90;;;;;;5073899;28;20235;-69
2023/05/06 04:12:40;;;;;;;9.40;5.27;;;12.70;99.90;;;;;;5055417;28;20176;-68
2023/05/06 04:15:06;;;;;;;8.87;5.40;;;12.80;99.90;;;;;;5074007;28;20161;-69
2023/05/06 04:17:32;;;;;;;10.53;6.03;;;12.80;99.90;;;;;;5073757;28;20172;-68
2023/05/06 04:19:57;;;;;;;9.67;6.10;;;12.80;99.90;;;;;;5072833;28;20256;-68
2023/05/06 04:22:23;;;;;;;11.20;5.73;;;12.90;99.90;;;;;;5073623;28;20199;-68
2023/05/06 04:24:49;;;;;;;9.00;5.23;;;13.00;99.90;;;;;;5073500;28;20725;-68
2023/05/06 04:27:14;;;;;;;9.23;4.93;;;13.10;99.90;;;;;;5073321;28;20646;-69
2023/05/06 04:29:40;;;;;;;8.80;4.63;;;13.20;99.90;;;;;;5073636;28;20173;-69
2023/05/06 04:32:06;;;;;;;8.63;5.30;;;13.40;99.90;;;;;;5073451;28;20250;-70
2023/05/06 04:34:35;;;;;;;6.07;4.70;;;13.80;99.90;;;;;;5073114;28;20169;-70
2023/05/06 04:37:00;;;;;;;9.60;4.97;;;14.10;99.90;;;;;;5073616;28;20176;-70
2023/05/06 04:39:26;;;;;;;9.23;5.33;;;14.60;99.90;;;;;;5073545;28;20302;-70
2023/05/06 04:41:51;;;;;;;7.37;5.00;;;15.10;99.90;;;;;;5072996;28;20214;-70
2023/05/06 04:44:18;;;;;;;8.60;4.63;;;15.50;99.90;;;;;;5073325;28;20168;-70
2023/05/06 04:46:44;;;;;;;7.63;4.57;;;16.00;99.90;;;;;;5073196;28;20163;-70
2023/05/06 04:49:10;;;;;;;8.90;4.83;;;16.40;99.90;;;;;;5072912;28;20172;-70
2023/05/06 04:51:35;;;;;;;8.80;4.67;;;16.80;88.60;;;;;;5072901;28;20201;-70
2023/05/06 04:54:01;;;;;;;9.80;4.70;;;17.00;60.20;;;;;;5054589;28;20263;-70
2023/05/06 04:56:27;;;;;;;6.47;4.57;;;17.40;48.30;;;;;;5073103;28;20222;-69
2023/05/06 04:58:52;;;;;;;8.80;4.27;;;17.70;25.20;;;;;;5055239;28;20176;-69
2023/05/06 05:01:18;;;;;;;6.15;4.40;;;18.60;7.50;;;;;;5072744;28;20176;-69
2023/05/06 05:03:44;;;;;;;5.53;4.32;;;19.60;1.00;;;;;;5072546;28;20172;-70
2023/05/06 05:06:12;;;;;;;5.38;4.43;;;20.70;1.00;;;;;;5073189;28;20176;-69
2023/05/06 05:08:38;;;;;;;5.53;4.28;;;21.50;1.00;;;;;;5072707;28;20176;-70
2023/05/06 05:11:07;;;;;;;6.75;4.00;;;22.30;1.00;;;;;;5072487;28;20208;-69
2023/05/06 05:13:33;;;;;;;5.00;4.10;;;23.10;99.90;;;;;;5073123;28;20625;-70
2023/05/06 05:15:59;;;;;;;5.55;3.72;;;23.50;1.00;;;;;;5054985;28;20245;-70
2023/05/06 05:18:26;;;;;;;5.93;3.58;;;22.90;1.00;;;;;;5054335;28;20275;-69
2023/05/06 05:20:52;;;;;;;6.15;4.15;;;22.10;99.90;;;;;;5072694;28;20203;-70
2023/05/06 05:23:17;;;;;;;6.50;3.65;;;21.70;1.00;;;;;;5072597;28;20197;-70
2023/05/06 05:25:43;;;;;;;4.30;3.50;;;22.10;99.90;;;;;;5072542;28;20221;-69
2023/05/06 05:28:08;;;;;;;3.85;2.97;;;21.60;1.00;;;;;;5072532;28;20573;-71
2023/05/06 05:30:34;;;;;;;3.63;3.10;;;22.20;99.90;;;;;;5072861;28;20227;-70
2023/05/06 05:33:00;;;;;;;3.05;2.75;;;22.80;1.00;;;;;;5072222;28;20236;-70
2023/05/06 05:35:25;;;;;;;4.90;3.17;;;23.30;99.90;;;;;;5072572;28;20248;-71
2023/05/06 05:37:51;;;;;;;3.97;3.40;;;23.90;1.00;;;;;;5072406;28;20577;-71
2023/05/06 05:40:16;;;;;;;3.33;3.03;;;24.40;99.90;;;;;;5072091;28;20628;-72
2023/05/06 05:42:42;;;;;;;3.20;2.90;;;25.80;1.00;;;;;;5073071;28;20176;-71
2023/05/06 05:45:08;;;;;;;3.25;2.80;;;26.20;1.00;;;;;;5072783;28;20168;-72
2023/05/06 05:47:34;;;;;;;3.15;2.85;;;26.50;1.00;;;;;;5072277;28;20160;-73
2023/05/06 05:49:59;;;;;;;5.25;2.75;;;26.50;99.90;;;;;;5054202;28;20207;-71
2023/05/06 05:52:25;;;;;;;3.20;2.90;;;27.60;79.00;;;;;;5072195;28;20172;-73
2023/05/06 05:54:50;;;;;;;3.35;2.85;;;28.50;1.00;;;;;;5072028;28;20192;-72
2023/05/06 05:57:16;;;;;;;3.40;2.90;;;28.30;1.00;;;;;;5072186;28;20221;-72
2023/05/06 05:59:42;;;;;;;3.38;3.08;;;28.70;1.00;;;;;;5072463;28;20628;-72
2023/05/06 06:02:07;;;;;;;3.72;2.88;;;28.40;1.00;;;;;;5071956;28;20650;-72
2023/05/06 06:04:33;;;;;;;4.00;3.17;;;28.90;1.00;;;;;;5073184;28;20196;-71
2023/05/06 06:07:00;;;;;;;3.67;2.70;;;29.20;1.00;;;;;;5058035;28;20620;-71
2023/05/06 06:09:26;;;;;;;4.18;3.15;;;29.60;1.00;;;;;;5058092;28;20169;-71
2023/05/06 06:11:52;;;;;;;7.55;3.40;;;30.80;99.90;;;;;;5075942;28;20215;-71
2023/05/06 06:14:18;;;;;;;4.07;2.97;;;30.80;99.90;;;;;;5075980;28;20236;-73
2023/05/06 06:16:43;;;;;;;4.07;3.30;;;30.60;99.90;;;;;;5075542;28;20263;-71
2023/05/06 06:19:09;;;;;;;4.70;3.20;;;29.60;99.90;;;;;;5075427;28;20546;-72
2023/05/06 06:21:35;;;;;;;6.72;3.78;;;29.30;1.00;;;;;;5075680;28;20172;-72
2023/05/06 06:24:01;;;;;;;5.00;3.80;;;30.10;99.90;;;;;;5076018;28;20628;-72
2023/05/06 06:26:26;;;;;;;3.60;3.30;;;30.30;99.90;;;;;;5075725;28;20161;-72
2023/05/06 06:28:52;;;;;;;3.47;3.03;;;29.60;99.90;;;;;;5075553;28;20160;-73
2023/05/06 06:31:17;;;;;;;4.72;3.38;;;29.40;1.00;;;;;;5075228;28;20718;-73
2023/05/06 06:33:43;;;;;;;3.70;3.40;;;30.90;99.90;;;;;;5075915;28;20185;-73
2023/05/06 06:36:09;;;;;;;5.78;3.25;;;30.90;99.90;;;;;;5075611;28;20247;-73
2023/05/06 06:38:35;;;;;;;3.47;3.10;;;31.50;99.90;;;;;;5075258;28;20173;-72
2023/05/06 06:41:00;;;;;;;3.97;3.60;;;30.60;99.90;;;;;;5075001;28;20172;-73
2023/05/06 06:43:26;;;;;;;4.03;3.42;;;31.00;99.90;;;;;;5057621;28;20271;-72
2023/05/06 06:45:52;;;;;;;4.75;3.58;;;32.40;99.90;;;;;;5075084;28;20169;-72
2023/05/06 06:48:18;;;;;;;3.53;3.15;;;33.20;99.90;;;;;;5075149;28;20172;-73
2023/05/06 06:50:44;;;;;;;6.75;3.40;;;33.30;99.90;;;;;;5075169;28;20218;-72
2023/05/06 06:53:09;;;;;;;5.68;3.35;;;33.60;99.90;;;;;;5075057;28;20168;-74
2023/05/06 06:55:35;;;;;;;5.03;3.33;;;33.50;99.90;;;;;;5074486;28;20628;-73
2023/05/06 06:58:01;;;;;;;3.35;3.10;;;33.10;99.90;;;;;;5074730;28;20251;-73
2023/05/06 07:00:27;;;;;;;4.57;3.00;;;33.00;99.90;;;;;;5074421;28;20173;-73
2023/05/06 07:02:53;;;;;;;4.30;2.47;;;33.10;99.90;;;;;;5074934;28;20169;-72
2023/05/06 07:05:19;;;;;;;3.30;2.90;;;33.30;99.90;;;;;;5057066;28;20173;-72
2023/05/06 07:07:44;;;;;;;2.67;2.40;;;33.50;99.90;;;;;;5074751;28;20222;-72
2023/05/06 07:10:10;;;;;;;4.07;2.58;;;33.70;99.90;;;;;;5074963;28;20547;-72
2023/05/06 07:12:36;;;;;;;3.67;2.92;;;32.40;99.90;;;;;;5075216;28;20647;-72
2023/05/06 07:15:05;;;;;;;3.10;2.80;;;31.20;99.90;;;;;;5074221;28;20230;-70
2023/05/06 07:17:31;;;;;;;3.47;2.80;;;30.50;99.90;;;;;;5074496;28;20177;-72
2023/05/06 07:19:57;;;;;;;2.85;2.65;;;29.20;99.90;;;;;;5073592;28;20239;-70
2023/05/06 07:22:23;;;;;;;2.97;2.67;;;29.20;1.00;;;;;;5074772;28;20165;-71
2023/05/06 07:24:48;;;;;;;3.70;2.58;;;29.10;1.00;;;;;;5074803;28;20169;-71
2023/05/06 07:27:14;;;;;;;3.30;2.83;;;29.30;1.00;;;;;;5074597;28;20742;-70
2023/05/06 07:29:40;;;;;;;4.30;2.50;;;29.10;1.00;;;;;;5074046;28;20165;-71
2023/05/06 07:32:05;;;;;;;8.77;2.97;;;29.00;1.00;;;;;;5074357;28;20261;-71
2023/05/06 07:34:33;;;;;;;5.40;3.00;;;28.60;1.00;;;;;;5074608;28;20246;-72
2023/05/06 07:36:58;;;;;;;6.32;4.30;;;27.70;1.00;;;;;;5074312;28;20271;-71
2023/05/06 07:39:24;;;;;;;5.90;3.55;;;27.10;99.90;;;;;;5074286;28;20207;-71
2023/05/06 07:41:50;;;;;;;3.92;3.28;;;26.40;1.00;;;;;;5074523;28;20234;-70
2023/05/06 07:44:16;;;;;;;4.70;3.08;;;25.20;99.90;;;;;;5074022;28;20599;-69
2023/05/06 07:46:41;;;;;;;4.22;3.10;;;24.70;1.00;;;;;;5074313;28;20511;-70
2023/05/06 07:49:07;;;;;;;3.80;3.20;;;24.10;1.00;;;;;;5074252;28;20173;-70
2023/05/06 07:51:33;;;;;;;5.60;3.17;;;24.90;1.00;;;;;;5073490;28;20682;-70
2023/05/06 07:53:58;;;;;;;3.40;3.10;;;26.00;1.00;;;;;;5074071;28;20200;-72
2023/05/06 07:56:24;;;;;;;3.05;2.67;;;27.80;99.90;;;;;;5073249;28;20168;-70
2023/05/06 07:58:50;;;;;;;4.72;3.33;;;29.60;1.00;;;;;;5072939;28;20633;-72
2023/05/06 08:01:15;;;;;;;4.00;3.05;;;30.20;1.00;;;;;;5073713;28;20172;-73
2023/05/06 08:03:41;;;;;;;4.07;3.28;;;30.00;99.90;;;;;;5073799;28;20199;-72
2023/05/06 08:06:07;;;;;;;3.83;3.30;;;29.20;1.00;;;;;;5073457;28;20160;-72
2023/05/06 08:08:33;;;;;;;4.03;3.28;;;29.20;1.00;;;;;;5055332;28;20169;-72
2023/05/06 08:10:58;;;;;;;3.05;2.85;;;29.50;1.00;;;;;;5055392;28;20299;-72
2023/05/06 08:13:27;;;;;;;3.35;3.08;;;29.80;1.00;;;;;;5073584;28;20636;-71
2023/05/06 08:15:55;;;;;;;4.45;3.40;;;29.60;1.00;;;;;;5055303;28;20620;-72
2023/05/06 08:18:20;;;;;;;5.00;2.97;;;29.90;1.00;;;;;;5072891;28;20255;-74
2023/05/06 08:20:46;;;;;;;4.13;3.13;;;29.10;1.00;;;;;;5073248;28;20697;-72
2023/05/06 08:23:11;;;;;;;4.95;2.78;;;29.70;1.00;;;;;;5055710;28;20203;-72
2023/05/06 08:25:37;;;;;;;4.45;2.90;;;30.90;99.90;;;;;;5072715;28;20169;-72
2023/05/06 08:28:02;;;;;;;4.72;3.30;;;30.50;99.90;;;;;;5072359;28;20165;-73
2023/05/06 08:30:28;;;;;;;4.30;3.30;;;31.40;99.90;;;;;;5072803;28;20279;-73
2023/05/06 08:32:54;;;;;;;3.80;2.72;;;32.00;99.90;;;;;;5073527;28;20171;-73
2023/05/06 08:35:20;;;;;;;3.90;3.05;;;32.50;99.90;;;;;;5073352;28;20203;-73
2023/05/06 08:37:45;;;;;;;3.80;3.40;;;32.90;99.90;;;;;;5073165;28;20175;-73
2023/05/06 08:40:20;;;;;;;2.88;2.63;;;32.40;99.90;;;;;;5072810;28;20616;-73
2023/05/06 08:42:47;;;;;;;4.10;2.83;;;31.90;99.90;;;;;;5072990;28;20168;-71
2023/05/06 08:45:15;;;;;;;3.97;2.65;;;30.70;99.90;;;;;;5073134;28;20581;-72
2023/05/06 08:47:41;;;;;;;3.45;2.67;;;30.80;99.90;;;;;;5054825;28;20222;-72
2023/05/06 08:50:09;;;;;;;3.22;2.65;;;30.80;99.90;;;;;;5072940;28;20201;-72
2023/05/06 08:52:38;;;;;;;2.78;2.28;;;30.60;99.90;;;;;;5073210;28;20177;-72
2023/05/06 08:55:05;;;;;;;6.68;3.33;;;30.20;99.90;;;;;;5072221;28;20176;-72
2023/05/06 08:57:32;;;;;;;2.85;2.20;;;31.40;99.90;;;;;;5073001;28;20164;-72
2023/05/06 08:59:58;;;;;;;3.35;2.10;;;31.40;99.90;;;;;;5071939;28;20176;-73
2023/05/06 09:02:24;;;;;;;2.30;1.88;;;30.90;99.90;;;;;;5072344;28;20278;-73
2023/05/06 09:04:53;;;;;;;1.90;1.80;;;30.20;99.90;;;;;;5072775;28;20169;-72
2023/05/06 09:07:23;;;;;;;4.32;2.40;;;29.20;99.90;;;;;;5054405;28;20176;-73
2023/05/06 09:09:50;;;;;;;3.97;2.00;;;28.90;1.00;;;;;;5072407;28;20670;-72
2023/05/06 09:12:15;;;;;;;4.00;1.85;;;28.50;1.00;;;;;;5072875;28;20184;-71
2023/05/06 09:14:41;;;;;;;4.60;1.95;;;27.70;1.00;;;;;;5072733;28;20248;-72
2023/05/06 09:17:25;;;;;;;4.85;1.60;;;28.10;1.00;;;;;;5072221;28;20175;-72
2023/05/06 09:19:55;;;;;;;2.22;1.33;;;27.60;1.00;;;;;;5072589;28;20242;-72
2023/05/06 09:22:26;;;;;;;2.13;1.52;;;27.10;1.00;;;;;;5072574;28;20195;-71
2023/05/06 09:24:56;;;;;;;2.08;1.65;;;26.30;99.90;;;;;;5072408;28;20157;-70
2023/05/06 09:27:26;;;;;;;2.95;2.45;;;25.70;1.00;;;;;;5072439;28;20179;-71
2023/05/06 09:29:59;;;;;;;3.28;1.85;;;25.40;99.90;;;;;;5072139;28;20168;-71
2023/05/06 09:32:25;;;;;;;1.70;1.60;;;24.40;1.00;;;;;;5072057;28;20715;-71
2023/05/06 09:34:50;;;;;;;2.72;1.98;;;24.30;1.00;;;;;;5072559;28;20252;-72
2023/05/06 09:37:16;;;;;;;3.63;2.08;;;24.40;1.00;;;;;;5072459;28;20179;-72
2023/05/06 09:39:41;;;;;;;4.15;1.80;;;24.70;1.00;;;;;;5074785;28;20169;-71
2023/05/06 09:42:07;;;;;;;2.40;2.20;;;25.40;91.20;;;;;;5057811;28;20207;-72
2023/05/06 09:44:33;;;;;;;3.30;2.33;;;25.70;99.90;;;;;;5076429;28;20248;-71
2023/05/06 09:46:58;;;;;;;4.15;2.38;;;25.50;1.00;;;;;;5058614;28;20267;-72
2023/05/06 09:49:25;;;;;;;2.65;2.05;;;26.00;1.00;;;;;;5076216;28;20199;-72
2023/05/06 09:51:51;;;;;;;3.20;2.40;;;25.40;99.90;;;;;;5076050;28;20196;-71
2023/05/06 09:54:17;;;;;;;2.25;2.05;;;24.90;1.00;;;;;;5076062;28;20560;-71
2023/05/06 09:56:45;;;;;;;3.15;2.25;;;24.40;1.00;;;;;;5076397;28;20176;-71
2023/05/06 09:59:12;;;;;;;7.40;2.42;;;24.40;99.90;;;;;;5076239;28;20169;-71
2023/05/06 10:01:38;;;;;;;2.97;2.05;;;24.50;1.00;;;;;;5076101;28;20644;-71
2023/05/06 10:04:07;;;;;;;2.25;2.00;;;24.60;1.00;;;;;;5075815;28;20164;-73
2023/05/06 10:06:35;;;;;;;4.03;2.13;;;24.70;1.00;;;;;;5074914;28;20249;-73
2023/05/06 10:09:01;;;;;;;3.45;2.35;;;25.00;99.90;;;;;;5075412;28;20208;-72
2023/05/06 10:11:30;;;;;;;2.40;2.17;;;25.50;1.00;;;;;;5075725;28;20232;-71
2023/05/06 10:13:58;;;;;;;4.03;2.28;;;25.80;99.90;;;;;;5075953;28;20164;-70
2023/05/06 10:16:24;;;;;;;2.05;1.80;;;25.80;99.90;;;;;;5075938;28;20192;-72
2023/05/06 10:18:53;;;;;;;5.30;2.35;;;25.80;36.00;;;;;;5075024;28;20585;-72
2023/05/06 10:21:23;;;;;;;3.38;2.15;;;26.30;1.00;;;;;;5075128;28;20187;-72
2023/05/06 10:24:03;;;;;;;3.22;1.77;;;25.90;1.00;;;;;;5075874;28;20525;-72
2023/05/06 10:26:30;;;;;;;3.60;2.00;;;26.10;1.00;;;;;;5075693;28;20176;-70
2023/05/06 10:29:16;;;;;;;2.90;1.80;;;25.90;1.00;;;;;;5075003;28;20343;-73
2023/05/06 10:31:52;;;;;;;3.70;1.65;;;24.90;49.90;;;;;;5075660;28;20287;-71
2023/05/06 10:34:20;;;;;;;3.15;2.00;;;24.70;1.00;;;;;;5075736;28;20251;-71
2023/05/06 10:36:49;;;;;;;4.03;2.22;;;24.50;1.00;;;;;;5074560;28;20651;-72
2023/05/06 10:39:15;;;;;;;2.67;1.77;;;25.10;1.00;;;;;;5057076;28;20180;-71
2023/05/06 10:41:41;;;;;;;2.20;1.40;;;25.40;1.00;;;;;;5057109;28;20172;-71
2023/05/06 10:44:08;;;;;;;2.30;1.48;;;25.60;99.90;;;;;;5074912;28;20180;-71
2023/05/06 10:46:58;;;;;;;1.40;1.30;;;25.90;99.90;;;;;;5057355;28;20271;-72
2023/05/06 10:49:24;;;;;;;2.55;1.85;;;25.50;99.90;;;;;;5074839;28;20234;-71
2023/05/06 10:52:11;;;;;;;2.45;1.50;;;25.70;99.90;;;;;;5073704;28;20228;-71
2023/05/06 10:54:51;;;;;;;2.67;1.67;;;25.70;99.90;;;;;;5057479;28;20168;-72
2023/05/06 10:57:19;;;;;;;2.80;1.65;;;25.00;1.00;;;;;;5074418;28;20679;-73
2023/05/06 10:59:46;;;;;;;5.15;2.53;;;25.10;1.00;;;;;;5074509;28;20180;-71
2023/05/06 11:02:12;;;;;;;3.83;2.03;;;25.20;1.00;;;;;;5074981;28;20160;-73
2023/05/06 11:04:38;;;;;;;2.60;1.70;;;24.90;1.00;;;;;;5074732;28;20252;-71
2023/05/06 11:07:13;;;;;;;2.75;1.40;;;25.10;1.00;;;;;;5073660;28;20644;-72
2023/05/06 11:09:58;;;;;;;1.92;1.33;;;25.00;1.00;;;;;;5074578;28;20163;-72
2023/05/06 11:12:43;;;;;;;3.88;1.92;;;25.20;1.00;;;;;;5074561;28;20203;-72
2023/05/06 11:15:39;;;;;;;2.25;1.63;;;24.80;98.90;;;;;;5074753;28;20188;-72
2023/05/06 11:18:23;;;;;;;2.55;1.70;;;24.80;99.90;;;;;;5073877;28;20168;-71
2023/05/06 11:20:50;;;;;;;5.15;2.03;;;25.10;36.50;;;;;;5033750;28;20640;-71
2023/05/06 11:23:17;;;;;;;2.92;1.85;;;25.10;99.90;;;;;;5034737;28;20173;-71
2023/05/06 11:25:45;;;;;;;3.28;2.83;;;24.90;99.90;;;;;;5034478;28;20166;-71
2023/05/06 11:28:13;;;;;;;3.55;1.98;;;24.90;1.00;;;;;;5034189;28;20176;-71
2023/05/06 11:30:52;;;;;;;2.15;1.83;;;24.90;99.90;;;;;;5033087;28;20201;-70
2023/05/06 11:33:18;;;;;;;2.35;1.73;;;24.50;1.00;;;;;;5034763;28;20170;-71
2023/05/06 11:35:45;;;;;;;6.25;3.08;;;25.00;99.90;;;;;;5033362;28;20541;-71
2023/05/06 11:38:11;;;;;;;3.70;1.58;;;24.70;1.00;;;;;;5033772;28;20189;-71
2023/05/06 11:40:36;;;;;;;3.22;1.90;;;24.90;99.90;;;;;;5033508;28;20196;-71
2023/05/06 11:43:13;;;;;;;2.72;1.60;;;24.90;99.90;;;;;;5034260;28;20638;-72
2023/05/06 11:45:46;;;;;;;2.45;1.40;;;24.70;99.90;;;;;;5034500;28;20314;-72
2023/05/06 11:48:17;;;;;;;2.67;1.60;;;24.90;99.90;;;;;;5032772;28;20629;-71
2023/05/06 11:50:47;;;;;;;1.88;1.40;;;24.90;1.00;;;;;;5033689;28;20568;-71
2023/05/06 11:53:15;;;;;;;2.47;1.48;;;24.80;1.00;;;;;;5033631;28;20209;-71
2023/05/06 11:55:42;;;;;;;3.47;1.75;;;24.70;1.00;;;;;;5033939;28;20173;-71
2023/05/06 11:58:15;;;;;;;4.00;1.83;;;24.60;1.00;;;;;;5033911;28;20244;-71
2023/05/06 12:00:55;;;;;;;4.50;2.15;;;24.40;99.90;;;;;;5033580;28;20626;-70
2023/05/06 12:03:22;;;;;;;4.43;2.03;;;24.50;1.00;;;;;;5033605;28;20181;-72
2023/05/06 12:05:48;;;;;;;2.20;1.60;;;24.30;1.00;;;;;;5033439;28;20170;-71
2023/05/06 12:08:34;;;;;;;2.67;1.63;;;24.10;1.00;;;;;;5033242;28;20217;-72
2023/05/06 12:11:05;;;;;;;3.85;2.30;;;24.10;1.00;;;;;;5033216;28;20220;-70
2023/05/06 12:13:34;;;;;;;3.45;1.73;;;23.90;1.00;;;;;;5034042;28;20162;-70
2023/05/06 12:16:00;;;;;;;3.28;1.60;;;23.40;99.90;;;;;;5033409;28;20679;-70
2023/05/06 12:18:26;;;;;;;3.58;2.13;;;22.70;99.90;;;;;;5036218;28;20206;-71
2023/05/06 12:20:53;;;;;;;1.65;1.50;;;22.10;1.00;;;;;;5073417;28;20667;-71
2023/05/06 12:23:20;;;;;;;5.80;2.65;;;22.10;11.00;;;;;;5072800;28;20238;-71
2023/05/06 12:26:05;;;;;;;4.00;1.80;;;22.40;99.90;;;;;;5073086;28;20165;-71
2023/05/06 12:28:35;;;;;;;2.83;2.03;;;22.80;1.00;;;;;;5073085;28;20248;-70
2023/05/06 12:31:20;;;;;;;2.80;1.88;;;23.10;1.00;;;;;;5073245;28;20259;-71
2023/05/06 12:33:48;;;;;;;3.65;1.80;;;22.70;1.00;;;;;;5073246;28;20199;-71
2023/05/06 12:36:14;;;;;;;3.80;2.13;;;22.40;1.00;;;;;;5073490;28;20255;-70
2023/05/06 12:38:51;;;;;;;7.07;2.90;;;22.10;1.00;;;;;;5072494;28;20172;-70
2023/05/06 12:41:21;;;;;;;6.53;2.38;;;22.10;99.90;;;;;;5072631;28;20176;-70
2023/05/06 12:43:46;;;;;;;4.15;2.20;;;22.30;1.00;;;;;;5072276;28;20203;-71
2023/05/06 12:46:15;;;;;;;4.50;2.33;;;22.20;99.90;;;;;;5073049;28;20161;-71
2023/05/06 12:49:00;;;;;;;3.72;2.33;;;22.20;1.00;;;;;;5072517;28;20230;-70
2023/05/06 12:51:27;;;;;;;5.25;2.00;;;22.10;1.00;;;;;;5072549;28;20571;-71